createdAt,value
2022-08-05T00:00:17.340Z,26.38
2022-08-05T00:02:50.754Z,26.30
2022-08-05T00:06:02.744Z,26.24
2022-08-05T00:08:32.571Z,26.18
2022-08-05T00:10:53.491Z,26.16
2022-08-05T00:13:20.220Z,26.14
2022-08-05T00:16:05.851Z,26.09
2022-08-05T00:18:35.197Z,26.02
2022-08-05T00:21:01.951Z,26.00
2022-08-05T00:23:44.639Z,26.01
2022-08-05T00:26:14.874Z,26.00
2022-08-05T00:28:43.760Z,25.96
2022-08-05T00:31:12.817Z,25.90
2022-08-05T00:34:56.865Z,25.85
2022-08-05T00:37:10.760Z,25.77
2022-08-05T00:39:13.909Z,25.74
2022-08-05T00:41:55.162Z,25.70
2022-08-05T00:44:30.937Z,25.55
2022-08-05T00:47:01.870Z,25.56
2022-08-05T00:49:32.522Z,25.54
2022-08-05T00:52:00.232Z,25.56
2022-08-05T00:54:28.193Z,25.62
2022-08-05T00:56:57.185Z,25.58
2022-08-05T00:59:23.923Z,25.62
2022-08-05T01:01:51.190Z,25.64
2022-08-05T01:04:20.189Z,25.64
2022-08-05T01:06:53.692Z,25.61
2022-08-05T01:09:22.219Z,25.63
2022-08-05T01:11:51.688Z,25.61
2022-08-05T01:14:55.927Z,25.63
2022-08-05T01:17:40.335Z,25.60
2022-08-05T01:20:24.585Z,25.52
2022-08-05T01:23:00.067Z,25.54
2022-08-05T01:26:05.112Z,25.55
2022-08-05T01:28:37.743Z,25.52
2022-08-05T01:31:21.503Z,25.51
2022-08-05T01:34:03.643Z,25.50
2022-08-05T01:36:34.759Z,25.45
2022-08-05T01:39:10.584Z,25.46
2022-08-05T01:41:37.907Z,25.47
2022-08-05T01:44:11.945Z,25.48
2022-08-05T01:46:46.456Z,25.50
2022-08-05T01:49:24.241Z,25.49
2022-08-05T01:51:56.035Z,25.46
2022-08-05T01:54:27.219Z,25.49
2022-08-05T01:58:09.773Z,25.47
2022-08-05T01:59:47.256Z,25.48
2022-08-05T02:02:14.360Z,25.45
2022-08-05T02:04:43.126Z,25.42
2022-08-05T02:07:21.935Z,25.41
2022-08-05T02:09:50.876Z,25.42
2022-08-05T02:12:25.509Z,25.43
2022-08-05T02:15:19.537Z,25.38
2022-08-05T02:18:30.855Z,25.35
2022-08-05T02:20:59.178Z,25.33
2022-08-05T02:23:33.756Z,25.29
2022-08-05T02:26:03.616Z,25.20
2022-08-05T02:28:35.255Z,25.18
2022-08-05T02:31:14.441Z,25.19
2022-08-05T02:33:57.612Z,25.13
2022-08-05T02:36:27.614Z,25.10
2022-08-05T02:38:56.102Z,25.09
2022-08-05T02:41:28.350Z,25.05
2022-08-05T02:44:06.514Z,25.06
2022-08-05T02:46:53.168Z,25.07
2022-08-05T02:49:27.036Z,25.06
2022-08-05T02:52:05.762Z,25.04
2022-08-05T02:54:35.740Z,24.99
2022-08-05T02:57:10.054Z,24.95
2022-08-05T02:59:54.212Z,24.93
2022-08-05T03:02:25.002Z,24.92
2022-08-05T03:04:55.533Z,24.93
2022-08-05T03:07:40.574Z,24.91
2022-08-05T03:10:10.020Z,24.88
2022-08-05T03:12:38.824Z,24.86
2022-08-05T03:15:07.550Z,24.86
2022-08-05T03:17:41.426Z,24.85
2022-08-05T03:20:10.134Z,24.84
2022-08-05T03:22:37.344Z,24.87
2022-08-05T03:25:33.939Z,24.90
2022-08-05T03:27:59.263Z,24.89
2022-08-05T03:30:33.570Z,24.91
2022-08-05T03:33:04.459Z,24.85
2022-08-05T03:35:41.122Z,24.68
2022-08-05T03:38:12.310Z,24.78
2022-08-05T03:40:45.379Z,24.76
2022-08-05T03:43:59.030Z,24.81
2022-08-05T03:46:01.848Z,24.92
2022-08-05T03:48:29.598Z,24.97
2022-08-05T03:52:38.612Z,25.05
2022-08-05T03:55:50.983Z,25.07
2022-08-05T03:57:00.048Z,24.98
2022-08-05T03:59:47.022Z,24.99
2022-08-05T04:02:17.566Z,25.09
2022-08-05T04:05:03.065Z,25.13
2022-08-05T04:07:30.202Z,25.14
2022-08-05T04:09:59.804Z,25.18
2022-08-05T04:12:30.070Z,25.16
2022-08-05T04:14:59.412Z,25.20
2022-08-05T04:17:55.889Z,25.19
2022-08-05T04:20:21.663Z,25.24
2022-08-05T04:22:50.340Z,25.26
2022-08-05T04:25:17.269Z,25.29
2022-08-05T04:27:57.328Z,25.26
2022-08-05T04:30:26.599Z,25.31
2022-08-05T04:32:53.382Z,25.37
2022-08-05T04:35:20.211Z,25.46
2022-08-05T04:38:02.756Z,25.49
2022-08-05T04:40:47.900Z,25.54
2022-08-05T04:43:17.757Z,25.58
2022-08-05T04:45:54.977Z,25.63
2022-08-05T04:48:27.385Z,25.53
2022-08-05T04:51:02.632Z,25.65
2022-08-05T04:53:33.666Z,25.74
2022-08-05T04:56:33.958Z,25.79
2022-08-05T04:58:50.031Z,25.69
2022-08-05T05:01:33.739Z,25.88
2022-08-05T05:04:04.698Z,25.87
2022-08-05T05:06:35.997Z,26.05
2022-08-05T05:09:07.843Z,26.16
2022-08-05T05:11:48.513Z,26.15
2022-08-05T05:14:31.551Z,26.33
2022-08-05T05:17:03.251Z,26.42
2022-08-05T05:19:36.753Z,26.49
2022-08-05T05:22:24.301Z,26.50
2022-08-05T05:24:57.493Z,26.43
2022-08-05T05:27:44.655Z,26.42
2022-08-05T05:30:29.063Z,26.43
2022-08-05T05:32:56.960Z,26.35
2022-08-05T05:35:29.105Z,26.49
2022-08-05T05:38:03.425Z,26.51
2022-08-05T05:40:33.388Z,26.54
2022-08-05T05:43:02.096Z,26.55
2022-08-05T05:45:29.520Z,26.61
2022-08-05T05:48:07.070Z,26.59
2022-08-05T05:50:43.828Z,26.55
2022-08-05T05:53:22.509Z,26.45
2022-08-05T05:55:51.729Z,26.23
2022-08-05T05:58:30.257Z,26.25
2022-08-05T06:01:12.593Z,26.31
2022-08-05T06:04:00.451Z,26.24
2022-08-05T06:06:31.116Z,26.18
2022-08-05T06:08:59.948Z,26.09
2022-08-05T06:11:26.682Z,26.09
2022-08-05T06:13:56.156Z,26.18
2022-08-05T06:16:28.691Z,25.99
2022-08-05T06:19:01.043Z,26.10
2022-08-05T06:21:37.224Z,26.11
2022-08-05T06:24:11.600Z,25.90
2022-08-05T06:26:51.044Z,26.12
2022-08-05T06:29:42.896Z,26.17
2022-08-05T06:32:21.290Z,26.45
2022-08-05T06:34:57.953Z,26.74
2022-08-05T06:37:52.261Z,27.05
2022-08-05T06:40:17.915Z,27.24
2022-08-05T06:42:48.836Z,27.36
2022-08-05T06:45:21.315Z,27.44
2022-08-05T06:48:47.060Z,27.47
2022-08-05T06:50:53.835Z,27.50
2022-08-05T06:53:27.638Z,27.53
2022-08-05T06:55:55.070Z,27.42
2022-08-05T06:58:34.798Z,27.56
2022-08-05T07:01:03.721Z,27.70
2022-08-05T07:03:32.821Z,27.76
2022-08-05T07:06:05.938Z,27.66
2022-08-05T07:08:40.528Z,27.43
2022-08-05T07:11:15.378Z,27.46
2022-08-05T07:14:02.026Z,27.46
2022-08-05T07:18:00.227Z,27.30
2022-08-05T07:22:28.716Z,27.07
2022-08-05T07:24:58.772Z,27.15
2022-08-05T07:27:27.197Z,27.11
2022-08-05T07:30:27.478Z,27.29
2022-08-05T07:32:44.535Z,27.36
2022-08-05T07:36:04.909Z,27.13
2022-08-05T07:38:04.425Z,27.26
2022-08-05T07:40:32.170Z,27.24
2022-08-05T07:42:59.957Z,27.24
2022-08-05T07:45:56.734Z,27.23
2022-08-05T07:49:01.666Z,27.10
2022-08-05T07:51:23.063Z,27.04
2022-08-05T07:53:51.788Z,27.06
2022-08-05T07:56:59.911Z,27.10
2022-08-05T07:59:08.661Z,27.02
2022-08-05T08:01:35.793Z,27.02
2022-08-05T08:04:34.285Z,26.97
2022-08-05T08:07:07.163Z,26.78
2022-08-05T08:09:34.941Z,26.52
2022-08-05T08:12:10.702Z,26.50
2022-08-05T08:14:46.673Z,26.55
2022-08-05T08:17:15.753Z,26.57
2022-08-05T08:20:21.080Z,26.47
2022-08-05T08:22:30.897Z,26.58
2022-08-05T08:25:03.374Z,26.59
2022-08-05T08:27:39.935Z,26.66
2022-08-05T08:30:27.603Z,26.63
2022-08-05T08:33:02.743Z,26.69
2022-08-05T08:35:35.022Z,26.72
2022-08-05T08:38:16.287Z,26.74
2022-08-05T08:40:50.470Z,26.82
2022-08-05T08:45:20.352Z,26.86
2022-08-05T08:46:09.959Z,26.87
2022-08-05T08:49:07.540Z,26.82
2022-08-05T08:52:05.879Z,26.82
2022-08-05T08:54:20.271Z,26.84
2022-08-05T08:56:47.638Z,26.85
2022-08-05T08:59:20.791Z,26.61
2022-08-05T09:01:57.582Z,26.64
2022-08-05T09:04:30.592Z,26.84
2022-08-05T09:06:58.943Z,26.81
2022-08-05T09:09:34.741Z,26.86
2022-08-05T09:12:20.228Z,26.92
2022-08-05T09:14:58.635Z,26.84
2022-08-05T09:17:40.758Z,26.97
2022-08-05T09:20:12.276Z,26.98
2022-08-05T09:23:09.038Z,27.16
2022-08-05T09:26:01.205Z,27.01
2022-08-05T09:28:32.365Z,27.19
2022-08-05T09:31:43.353Z,27.35
2022-08-05T09:34:07.359Z,27.41
2022-08-05T09:36:54.593Z,27.38
2022-08-05T09:39:41.167Z,27.23
2022-08-05T09:42:23.289Z,26.90
2022-08-05T09:45:17.269Z,27.02
2022-08-05T09:47:55.184Z,26.98
2022-08-05T09:50:38.536Z,27.09
2022-08-05T09:53:23.169Z,26.88
2022-08-05T09:56:04.481Z,26.93
2022-08-05T09:58:33.535Z,26.87
2022-08-05T10:01:13.488Z,26.76
2022-08-05T10:04:00.511Z,26.74
2022-08-05T10:06:28.803Z,26.69
2022-08-05T10:09:27.534Z,26.72
2022-08-05T10:12:30.819Z,26.75
2022-08-05T10:15:20.959Z,26.76
2022-08-05T10:18:10.569Z,26.80
2022-08-05T10:20:47.947Z,26.81
2022-08-05T10:23:55.351Z,26.77
2022-08-05T10:26:14.882Z,26.74
2022-08-05T10:28:48.338Z,26.70
2022-08-05T10:32:48.095Z,26.67
2022-08-05T10:34:15.057Z,26.66
2022-08-05T10:36:45.990Z,26.68
2022-08-05T10:39:25.250Z,26.70
2022-08-05T10:42:21.582Z,26.72
2022-08-05T10:44:59.828Z,26.94
2022-08-05T10:47:36.989Z,27.23
2022-08-05T10:50:31.606Z,27.23
2022-08-05T10:53:02.113Z,27.40
2022-08-05T10:56:03.291Z,27.44
2022-08-05T10:58:23.237Z,27.33
2022-08-05T11:01:08.693Z,26.87
2022-08-05T11:04:03.909Z,27.47
2022-08-05T11:06:58.194Z,27.95
2022-08-05T11:12:42.671Z,28.89
2022-08-05T11:15:20.783Z,29.81
2022-08-05T11:18:00.086Z,30.58
2022-08-05T11:20:45.498Z,31.30
2022-08-05T11:24:04.964Z,32.19
2022-08-05T11:26:37.332Z,32.87
2022-08-05T11:29:12.812Z,33.60
2022-08-05T11:31:58.062Z,34.30
2022-08-05T11:34:51.547Z,34.93
2022-08-05T11:38:29.411Z,35.28
2022-08-05T11:41:34.293Z,35.96
2022-08-05T11:44:06.535Z,36.63
2022-08-05T11:47:09.841Z,37.01
2022-08-05T11:49:33.708Z,37.55
2022-08-05T11:52:11.372Z,38.01
2022-08-05T11:54:54.875Z,38.52
2022-08-05T11:58:08.515Z,38.81
2022-08-05T12:00:30.620Z,39.22
2022-08-05T12:02:59.430Z,39.81
2022-08-05T12:05:36.524Z,39.99
2022-08-05T12:08:18.289Z,39.90
2022-08-05T12:10:48.881Z,40.17
2022-08-05T12:13:48.754Z,40.70
2022-08-05T12:16:27.175Z,41.28
2022-08-05T12:19:05.066Z,41.17
2022-08-05T12:21:53.325Z,41.17
2022-08-05T12:24:24.557Z,40.88
2022-08-05T12:26:56.622Z,40.41
2022-08-05T12:29:38.864Z,39.67
2022-08-05T12:32:13.991Z,39.30
2022-08-05T12:34:46.822Z,38.29
2022-08-05T12:37:21.807Z,38.72
2022-08-05T12:39:57.105Z,38.87
2022-08-05T12:43:20.589Z,39.29
2022-08-05T12:45:56.318Z,38.90
2022-08-05T12:48:27.391Z,38.89
2022-08-05T12:51:21.831Z,38.47
2022-08-05T12:54:04.167Z,37.91
2022-08-05T12:56:45.301Z,37.48
2022-08-05T12:59:46.921Z,37.24
2022-08-05T13:02:14.213Z,36.76
2022-08-05T13:04:54.517Z,35.96
2022-08-05T13:07:55.815Z,35.57
2022-08-05T13:10:20.471Z,35.40
2022-08-05T13:12:57.587Z,35.04
2022-08-05T13:15:36.137Z,34.18
2022-08-05T13:18:19.792Z,33.99
2022-08-05T13:20:49.243Z,34.06
2022-08-05T13:23:18.073Z,34.14
2022-08-05T13:25:52.816Z,34.17
2022-08-05T13:28:26.294Z,34.11
2022-08-05T13:30:53.611Z,34.13
2022-08-05T13:34:23.398Z,33.83
2022-08-05T13:36:09.279Z,33.53
2022-08-05T13:38:38.465Z,33.56
2022-08-05T13:41:13.074Z,33.34
2022-08-05T13:43:45.098Z,33.31
2022-08-05T13:49:12.919Z,32.65
2022-08-05T13:51:46.717Z,32.33
2022-08-05T13:54:16.101Z,32.24
2022-08-05T13:56:45.281Z,32.22
2022-08-05T13:59:21.396Z,32.18
2022-08-05T14:01:58.628Z,32.21
2022-08-05T14:05:05.830Z,32.27
2022-08-05T14:08:00.751Z,31.96
2022-08-05T14:10:31.366Z,31.90
2022-08-05T14:12:58.733Z,31.98
2022-08-05T14:16:08.773Z,31.96
2022-08-05T14:18:17.350Z,31.81
2022-08-05T14:20:47.463Z,31.74
2022-08-05T14:23:15.329Z,31.76
2022-08-05T14:25:54.310Z,31.75
2022-08-05T14:28:26.854Z,31.74
2022-08-05T14:30:55.276Z,31.75
2022-08-05T14:33:22.649Z,31.65
2022-08-05T14:35:52.091Z,31.44
2022-08-05T14:38:31.807Z,31.45
2022-08-05T14:41:00.751Z,31.32
2022-08-05T14:44:02.697Z,31.26
2022-08-05T14:46:15.769Z,31.23
2022-08-05T14:48:42.713Z,31.15
2022-08-05T14:51:15.423Z,31.05
2022-08-05T14:53:44.205Z,30.64
2022-08-05T14:56:12.151Z,30.62
2022-08-05T14:58:47.835Z,30.66
2022-08-05T15:01:24.489Z,30.54
2022-08-05T15:04:11.413Z,30.10
2022-08-05T15:06:40.543Z,30.26
2022-08-05T15:09:07.891Z,30.05
2022-08-05T15:11:52.248Z,30.00
2022-08-05T15:14:34.943Z,29.99
2022-08-05T15:17:09.839Z,29.92
2022-08-05T15:19:48.805Z,29.81
2022-08-05T15:22:16.597Z,29.67
2022-08-05T15:24:44.902Z,29.36
2022-08-05T15:27:12.382Z,29.33
2022-08-05T15:29:42.297Z,29.28
2022-08-05T15:32:09.115Z,29.14
2022-08-05T15:34:35.925Z,29.15
2022-08-05T15:37:06.217Z,29.05
2022-08-05T15:40:59.322Z,28.89
2022-08-05T15:42:54.422Z,28.93
2022-08-05T15:45:11.510Z,28.47
2022-08-05T15:47:38.929Z,28.40
2022-08-05T15:50:06.388Z,28.37
2022-08-05T15:52:54.710Z,28.33
2022-08-05T15:55:25.062Z,28.28
2022-08-05T15:58:16.368Z,28.29
2022-08-05T16:01:04.064Z,28.17
2022-08-05T16:03:32.803Z,28.15
2022-08-05T16:06:00.908Z,28.04
2022-08-05T16:08:30.825Z,28.07
2022-08-05T16:10:58.550Z,27.98
2022-08-05T16:13:34.359Z,27.82
2022-08-05T16:16:03.524Z,27.81
2022-08-05T16:18:31.092Z,27.76
2022-08-05T16:20:59.849Z,27.54
2022-08-05T16:23:54.141Z,27.31
2022-08-05T16:26:26.126Z,27.49
2022-08-05T16:28:53.640Z,27.13
2022-08-05T16:31:21.814Z,27.01
2022-08-05T16:33:49.139Z,26.81
2022-08-05T16:36:20.282Z,26.95
2022-08-05T16:38:54.449Z,26.93
2022-08-05T16:42:27.858Z,26.48
2022-08-05T16:44:12.460Z,26.56
2022-08-05T16:46:41.023Z,26.59
2022-08-05T16:49:09.984Z,26.70
2022-08-05T16:51:50.100Z,26.67
2022-08-05T16:54:24.034Z,26.70
2022-08-05T16:56:54.835Z,26.62
2022-08-05T16:59:23.106Z,26.45
2022-08-05T17:01:54.925Z,26.46
2022-08-05T17:04:28.029Z,26.32
2022-08-05T17:07:01.525Z,26.21
2022-08-05T17:09:29.977Z,26.17
2022-08-05T17:11:59.675Z,25.93
2022-08-05T17:14:36.986Z,25.90
2022-08-05T17:17:06.682Z,25.66
2022-08-05T17:19:43.893Z,25.35
2022-08-05T17:22:24.358Z,24.94
2022-08-05T17:24:58.304Z,25.03
2022-08-05T17:27:33.587Z,24.88
2022-08-05T17:30:02.259Z,24.83
2022-08-05T17:32:29.942Z,24.83
2022-08-05T17:34:58.115Z,24.73
2022-08-05T17:37:39.587Z,24.65
2022-08-05T17:40:12.424Z,24.65
2022-08-05T17:42:41.754Z,24.40
2022-08-05T17:45:20.926Z,24.42
2022-08-05T17:47:54.075Z,24.44
2022-08-05T17:50:29.559Z,24.30
2022-08-05T17:52:59.424Z,24.34
2022-08-05T17:55:37.825Z,24.33
2022-08-05T17:58:13.183Z,24.07
2022-08-05T18:00:45.296Z,24.05
2022-08-05T18:06:11.754Z,23.70
2022-08-05T18:08:45.061Z,23.56
2022-08-05T18:11:24.010Z,23.36
2022-08-05T18:13:53.777Z,23.40
2022-08-05T18:16:21.056Z,22.98
2022-08-05T18:18:50.763Z,23.00
2022-08-05T18:21:20.089Z,22.98
2022-08-05T18:23:53.533Z,22.86
2022-08-05T18:26:22.071Z,22.93
2022-08-05T18:28:57.139Z,22.78
2022-08-05T18:31:24.244Z,22.78
2022-08-05T18:33:51.513Z,22.83
2022-08-05T18:36:19.345Z,22.91
2022-08-05T18:38:46.577Z,22.74
2022-08-05T18:41:56.162Z,22.86
2022-08-05T18:44:06.344Z,22.75
2022-08-05T18:46:34.788Z,22.68
2022-08-05T18:49:23.088Z,22.66
2022-08-05T18:52:16.293Z,22.61
2022-08-05T18:54:45.943Z,22.63
2022-08-05T18:57:15.543Z,22.63
2022-08-05T19:00:02.340Z,22.67
2022-08-05T19:02:29.806Z,22.54
2022-08-05T19:05:01.112Z,22.52
2022-08-05T19:07:45.613Z,22.44
2022-08-05T19:10:14.954Z,22.49
2022-08-05T19:12:43.202Z,22.49
2022-08-05T19:15:10.634Z,22.54
2022-08-05T19:18:10.288Z,22.54
2022-08-05T19:20:41.401Z,22.44
2022-08-05T19:24:03.726Z,22.26
2022-08-05T19:26:01.898Z,22.29
2022-08-05T19:28:32.699Z,22.30
2022-08-05T19:31:01.249Z,22.37
2022-08-05T19:33:35.974Z,22.11
2022-08-05T19:36:07.213Z,22.24
2022-08-05T19:38:36.405Z,22.30
2022-08-05T19:41:07.087Z,22.37
2022-08-05T19:44:06.283Z,22.40
2022-08-05T19:46:29.981Z,22.42
2022-08-05T19:49:01.295Z,22.36
2022-08-05T19:52:04.645Z,22.27
2022-08-05T19:54:28.424Z,22.27
2022-08-05T19:57:06.632Z,22.26
2022-08-05T19:59:59.609Z,22.29
2022-08-05T20:02:24.357Z,22.26
2022-08-05T20:04:53.360Z,22.15
2022-08-05T20:07:48.522Z,22.20
2022-08-05T20:10:11.666Z,22.21
2022-08-05T20:12:48.110Z,22.18
2022-08-05T20:15:47.843Z,22.12
2022-08-05T20:18:10.750Z,22.13
2022-08-05T20:20:56.205Z,22.08
2022-08-05T20:23:39.525Z,22.08
2022-08-05T20:26:16.613Z,22.08
2022-08-05T20:28:49.923Z,22.07
2022-08-05T20:31:22.979Z,22.06
2022-08-05T20:33:56.316Z,22.07
2022-08-05T20:36:24.470Z,22.05
2022-08-05T20:38:53.453Z,22.03
2022-08-05T20:41:26.985Z,21.96
2022-08-05T20:43:58.987Z,21.95
2022-08-05T20:46:30.178Z,21.91
2022-08-05T20:48:57.967Z,21.69
2022-08-05T20:51:25.336Z,21.71
2022-08-05T20:53:56.369Z,21.71
2022-08-05T20:56:28.095Z,21.72
2022-08-05T20:58:55.782Z,21.59
2022-08-05T21:01:38.678Z,21.57
2022-08-05T21:04:07.361Z,21.57
2022-08-05T21:06:45.608Z,21.56
2022-08-05T21:09:14.297Z,21.51
2022-08-05T21:12:07.551Z,21.39
2022-08-05T21:14:34.654Z,21.47
2022-08-05T21:17:05.447Z,21.52
2022-08-05T21:19:46.669Z,21.39
2022-08-05T21:22:23.279Z,21.35
2022-08-05T21:24:52.535Z,21.40
2022-08-05T21:27:24.780Z,21.42
2022-08-05T21:29:57.157Z,21.43
2022-08-05T21:32:27.103Z,21.45
2022-08-05T21:35:08.629Z,21.47
2022-08-05T21:37:47.395Z,21.42
2022-08-05T21:40:20.251Z,21.40
2022-08-05T21:42:47.414Z,21.23
2022-08-05T21:45:24.290Z,21.27
2022-08-05T21:47:57.086Z,21.20
2022-08-05T21:50:25.945Z,21.04
2022-08-05T21:52:59.139Z,21.03
2022-08-05T21:55:42.771Z,20.98
2022-08-05T21:58:24.962Z,20.91
2022-08-05T22:00:58.592Z,20.96
2022-08-05T22:03:48.878Z,20.80
2022-08-05T22:06:12.262Z,20.86
2022-08-05T22:08:42.632Z,20.92
2022-08-05T22:11:15.667Z,20.74
2022-08-05T22:14:32.518Z,20.81
2022-08-05T22:16:50.901Z,20.82
2022-08-05T22:19:57.317Z,20.85
2022-08-05T22:22:05.091Z,20.82
2022-08-05T22:24:52.041Z,20.82
2022-08-05T22:28:09.109Z,20.83
2022-08-05T22:30:25.558Z,20.82
2022-08-05T22:33:02.208Z,20.77
2022-08-05T22:35:38.619Z,20.68
2022-08-05T22:38:15.110Z,20.50
2022-08-05T22:40:42.002Z,20.54
2022-08-05T22:43:16.362Z,20.46
2022-08-05T22:46:07.437Z,20.52
2022-08-05T22:48:39.246Z,20.58
2022-08-05T22:51:06.915Z,20.47
2022-08-05T22:53:35.917Z,20.46
2022-08-05T22:56:03.750Z,20.53
2022-08-05T22:58:36.745Z,20.41
2022-08-05T23:01:03.516Z,20.45
2022-08-05T23:03:58.156Z,20.44
2022-08-05T23:06:20.166Z,20.35
2022-08-05T23:08:53.084Z,20.26
2022-08-05T23:11:19.800Z,20.30
2022-08-05T23:13:51.621Z,20.37
2022-08-05T23:16:33.397Z,20.23
2022-08-05T23:19:01.258Z,20.17
2022-08-05T23:21:42.554Z,20.13
2022-08-05T23:24:14.770Z,20.06
2022-08-05T23:26:42.039Z,20.05
2022-08-05T23:29:10.908Z,20.01
2022-08-05T23:31:42.600Z,19.74
2022-08-05T23:34:11.526Z,19.87
2022-08-05T23:36:41.460Z,19.84
2022-08-05T23:39:17.409Z,19.82
2022-08-05T23:41:50.728Z,19.82
2022-08-05T23:44:17.480Z,19.84
2022-08-05T23:46:46.651Z,19.72
2022-08-05T23:49:16.710Z,19.66
2022-08-05T23:52:02.940Z,19.50
2022-08-05T23:54:38.360Z,19.47
2022-08-05T23:57:06.600Z,19.45
